sensor_id;sensor_type;location;lat;lon;timestamp;temperature;humidity
58566;DHT22;47788;46.172;-1.158;2022-09-29T00:00:53;14.50;99.90
58566;DHT22;47788;46.172;-1.158;2022-09-29T00:03:19;14.50;99.90
58566;DHT22;47788;46.172;-1.158;2022-09-29T00:05:47;14.50;99.90
58566;DHT22;47788;46.172;-1.158;2022-09-29T00:08:14;14.50;99.90
58566;DHT22;47788;46.172;-1.158;2022-09-29T00:10:40;14.50;99.90
58566;DHT22;47788;46.172;-1.158;2022-09-29T00:13:06;14.50;99.90
58566;DHT22;47788;46.172;-1.158;2022-09-29T00:15:32;14.50;99.90
58566;DHT22;47788;46.172;-1.158;2022-09-29T00:17:57;14.40;99.90
58566;DHT22;47788;46.172;-1.158;2022-09-29T00:20:23;14.40;99.90
58566;DHT22;47788;46.172;-1.158;2022-09-29T00:22:49;14.40;99.90
58566;DHT22;47788;46.172;-1.158;2022-09-29T00:25:16;14.40;99.90
58566;DHT22;47788;46.172;-1.158;2022-09-29T00:27:42;14.30;99.90
58566;DHT22;47788;46.172;-1.158;2022-09-29T00:30:08;14.30;99.90
58566;DHT22;47788;46.172;-1.158;2022-09-29T00:32:33;14.30;99.90
58566;DHT22;47788;46.172;-1.158;2022-09-29T00:34:59;14.20;99.90
58566;DHT22;47788;46.172;-1.158;2022-09-29T00:37:25;14.30;99.90
58566;DHT22;47788;46.172;-1.158;2022-09-29T00:39:51;14.20;99.90
58566;DHT22;47788;46.172;-1.158;2022-09-29T00:42:18;14.20;99.90
58566;DHT22;47788;46.172;-1.158;2022-09-29T00:45:15;14.20;99.90
58566;DHT22;47788;46.172;-1.158;2022-09-29T00:47:42;14.20;99.90
58566;DHT22;47788;46.172;-1.158;2022-09-29T00:52:42;14.20;99.90
58566;DHT22;47788;46.172;-1.158;2022-09-29T00:55:30;14.10;99.90
58566;DHT22;47788;46.172;-1.158;2022-09-29T01:00:36;14.10;99.90
58566;DHT22;47788;46.172;-1.158;2022-09-29T01:03:13;14.10;99.90
58566;DHT22;47788;46.172;-1.158;2022-09-29T01:05:44;14.00;99.90
58566;DHT22;47788;46.172;-1.158;2022-09-29T01:08:28;14.10;99.90
58566;DHT22;47788;46.172;-1.158;2022-09-29T01:10:56;14.10;99.90
58566;DHT22;47788;46.172;-1.158;2022-09-29T01:13:22;14.00;99.90
58566;DHT22;47788;46.172;-1.158;2022-09-29T01:15:49;14.00;99.90
58566;DHT22;47788;46.172;-1.158;2022-09-29T01:18:15;14.00;99.90
58566;DHT22;47788;46.172;-1.158;2022-09-29T01:21:30;14.10;99.90
58566;DHT22;47788;46.172;-1.158;2022-09-29T01:27:02;14.20;99.90
58566;DHT22;47788;46.172;-1.158;2022-09-29T01:40:18;14.30;99.90
58566;DHT22;47788;46.172;-1.158;2022-09-29T01:43:11;14.30;99.90
58566;DHT22;47788;46.172;-1.158;2022-09-29T01:46:19;14.40;99.90
58566;DHT22;47788;46.172;-1.158;2022-09-29T01:48:45;14.30;99.90
58566;DHT22;47788;46.172;-1.158;2022-09-29T01:51:17;14.40;99.90
58566;DHT22;47788;46.172;-1.158;2022-09-29T01:53:49;14.40;99.90
58566;DHT22;47788;46.172;-1.158;2022-09-29T01:56:22;14.40;99.90
58566;DHT22;47788;46.172;-1.158;2022-09-29T01:59:00;14.40;99.90
58566;DHT22;47788;46.172;-1.158;2022-09-29T02:01:31;14.30;99.90
58566;DHT22;47788;46.172;-1.158;2022-09-29T02:04:06;14.30;99.90
58566;DHT22;47788;46.172;-1.158;2022-09-29T02:06:38;14.30;99.90
58566;DHT22;47788;46.172;-1.158;2022-09-29T02:09:13;14.30;99.90
58566;DHT22;47788;46.172;-1.158;2022-09-29T02:11:41;14.30;99.90
58566;DHT22;47788;46.172;-1.158;2022-09-29T02:14:11;14.30;99.90
58566;DHT22;47788;46.172;-1.158;2022-09-29T02:16:42;14.30;99.90
58566;DHT22;47788;46.172;-1.158;2022-09-29T02:19:24;14.30;99.90
58566;DHT22;47788;46.172;-1.158;2022-09-29T02:21:50;14.30;99.90
58566;DHT22;47788;46.172;-1.158;2022-09-29T02:24:20;14.30;99.90
58566;DHT22;47788;46.172;-1.158;2022-09-29T02:26:46;14.30;99.90
58566;DHT22;47788;46.172;-1.158;2022-09-29T02:29:12;14.30;99.90
58566;DHT22;47788;46.172;-1.158;2022-09-29T02:31:39;14.30;99.90
58566;DHT22;47788;46.172;-1.158;2022-09-29T02:34:07;14.20;99.90
58566;DHT22;47788;46.172;-1.158;2022-09-29T02:36:56;14.20;99.90
58566;DHT22;47788;46.172;-1.158;2022-09-29T02:45:22;14.10;99.90
58566;DHT22;47788;46.172;-1.158;2022-09-29T02:47:51;14.10;99.90
58566;DHT22;47788;46.172;-1.158;2022-09-29T02:53:36;14.10;99.90
58566;DHT22;47788;46.172;-1.158;2022-09-29T02:59:00;14.10;99.90
58566;DHT22;47788;46.172;-1.158;2022-09-29T03:01:32;14.10;99.90
58566;DHT22;47788;46.172;-1.158;2022-09-29T03:03:58;14.00;99.90
58566;DHT22;47788;46.172;-1.158;2022-09-29T03:06:24;14.10;99.90
58566;DHT22;47788;46.172;-1.158;2022-09-29T03:08:50;14.10;99.90
58566;DHT22;47788;46.172;-1.158;2022-09-29T03:11:16;14.10;99.90
58566;DHT22;47788;46.172;-1.158;2022-09-29T03:13:41;14.00;99.90
58566;DHT22;47788;46.172;-1.158;2022-09-29T03:16:07;14.00;99.90
58566;DHT22;47788;46.172;-1.158;2022-09-29T03:18:32;14.00;99.90
58566;DHT22;47788;46.172;-1.158;2022-09-29T03:20:58;14.00;99.90
58566;DHT22;47788;46.172;-1.158;2022-09-29T03:23:24;14.00;99.90
58566;DHT22;47788;46.172;-1.158;2022-09-29T03:25:49;14.00;99.90
58566;DHT22;47788;46.172;-1.158;2022-09-29T03:28:15;13.90;99.90
58566;DHT22;47788;46.172;-1.158;2022-09-29T03:30:41;13.90;99.90
58566;DHT22;47788;46.172;-1.158;2022-09-29T03:33:07;13.90;99.90
58566;DHT22;47788;46.172;-1.158;2022-09-29T03:35:32;13.90;99.90
58566;DHT22;47788;46.172;-1.158;2022-09-29T03:37:58;13.90;99.90
58566;DHT22;47788;46.172;-1.158;2022-09-29T03:40:25;13.90;99.90
58566;DHT22;47788;46.172;-1.158;2022-09-29T03:42:51;13.90;99.90
58566;DHT22;47788;46.172;-1.158;2022-09-29T03:45:16;13.90;99.90
58566;DHT22;47788;46.172;-1.158;2022-09-29T03:47:42;13.90;99.90
58566;DHT22;47788;46.172;-1.158;2022-09-29T03:50:08;13.90;99.90
58566;DHT22;47788;46.172;-1.158;2022-09-29T03:52:33;13.90;99.90
58566;DHT22;47788;46.172;-1.158;2022-09-29T03:54:59;13.90;99.90
58566;DHT22;47788;46.172;-1.158;2022-09-29T03:57:24;13.90;99.90
58566;DHT22;47788;46.172;-1.158;2022-09-29T03:59:50;13.80;99.90
58566;DHT22;47788;46.172;-1.158;2022-09-29T04:02:17;13.90;99.90
58566;DHT22;47788;46.172;-1.158;2022-09-29T04:04:44;13.80;99.90
58566;DHT22;47788;46.172;-1.158;2022-09-29T04:07:10;13.80;99.90
58566;DHT22;47788;46.172;-1.158;2022-09-29T04:09:35;13.80;99.90
58566;DHT22;47788;46.172;-1.158;2022-09-29T04:12:01;13.70;99.90
58566;DHT22;47788;46.172;-1.158;2022-09-29T04:14:27;13.70;99.90
58566;DHT22;47788;46.172;-1.158;2022-09-29T04:16:52;13.70;99.90
58566;DHT22;47788;46.172;-1.158;2022-09-29T04:19:18;13.70;99.90
58566;DHT22;47788;46.172;-1.158;2022-09-29T04:21:44;13.70;99.90
58566;DHT22;47788;46.172;-1.158;2022-09-29T04:24:10;13.60;99.90
58566;DHT22;47788;46.172;-1.158;2022-09-29T04:26:36;13.60;99.90
58566;DHT22;47788;46.172;-1.158;2022-09-29T04:29:01;13.70;99.90
58566;DHT22;47788;46.172;-1.158;2022-09-29T04:31:27;13.60;99.90
58566;DHT22;47788;46.172;-1.158;2022-09-29T04:33:53;13.60;99.90
58566;DHT22;47788;46.172;-1.158;2022-09-29T04:36:19;13.60;99.90
58566;DHT22;47788;46.172;-1.158;2022-09-29T04:38:44;13.70;99.90
58566;DHT22;47788;46.172;-1.158;2022-09-29T04:41:10;13.70;99.90
58566;DHT22;47788;46.172;-1.158;2022-09-29T04:43:35;13.70;99.90
58566;DHT22;47788;46.172;-1.158;2022-09-29T04:46:05;13.70;99.90
58566;DHT22;47788;46.172;-1.158;2022-09-29T04:48:32;13.70;99.90
58566;DHT22;47788;46.172;-1.158;2022-09-29T04:50:57;13.70;99.90
58566;DHT22;47788;46.172;-1.158;2022-09-29T04:53:23;13.60;99.90
58566;DHT22;47788;46.172;-1.158;2022-09-29T04:55:49;13.60;99.90
58566;DHT22;47788;46.172;-1.158;2022-09-29T04:58:14;13.50;99.90
58566;DHT22;47788;46.172;-1.158;2022-09-29T05:00:40;13.50;99.90
58566;DHT22;47788;46.172;-1.158;2022-09-29T05:03:06;13.40;99.90
58566;DHT22;47788;46.172;-1.158;2022-09-29T05:05:31;13.40;99.90
58566;DHT22;47788;46.172;-1.158;2022-09-29T05:07:57;13.30;99.90
58566;DHT22;47788;46.172;-1.158;2022-09-29T05:10:24;13.30;99.90
58566;DHT22;47788;46.172;-1.158;2022-09-29T05:12:51;13.20;99.90
58566;DHT22;47788;46.172;-1.158;2022-09-29T05:15:18;13.20;99.90
58566;DHT22;47788;46.172;-1.158;2022-09-29T05:17:43;13.10;99.90
58566;DHT22;47788;46.172;-1.158;2022-09-29T05:20:10;13.10;99.90
58566;DHT22;47788;46.172;-1.158;2022-09-29T05:22:36;13.10;99.90
58566;DHT22;47788;46.172;-1.158;2022-09-29T05:25:01;13.10;99.90
58566;DHT22;47788;46.172;-1.158;2022-09-29T05:27:27;13.10;99.90
58566;DHT22;47788;46.172;-1.158;2022-09-29T05:29:53;13.10;99.90
58566;DHT22;47788;46.172;-1.158;2022-09-29T05:32:18;13.00;99.90
58566;DHT22;47788;46.172;-1.158;2022-09-29T05:34:44;13.00;99.90
58566;DHT22;47788;46.172;-1.158;2022-09-29T05:37:10;13.00;99.90
58566;DHT22;47788;46.172;-1.158;2022-09-29T05:39:36;13.10;99.90
58566;DHT22;47788;46.172;-1.158;2022-09-29T05:42:10;13.00;99.90
58566;DHT22;47788;46.172;-1.158;2022-09-29T05:44:35;13.10;99.90
58566;DHT22;47788;46.172;-1.158;2022-09-29T05:47:01;13.10;99.90
58566;DHT22;47788;46.172;-1.158;2022-09-29T05:49:27;13.10;99.90
58566;DHT22;47788;46.172;-1.158;2022-09-29T05:51:55;13.10;99.90
58566;DHT22;47788;46.172;-1.158;2022-09-29T05:54:20;13.10;99.90
58566;DHT22;47788;46.172;-1.158;2022-09-29T05:56:46;13.10;99.90
58566;DHT22;47788;46.172;-1.158;2022-09-29T05:59:12;13.10;99.90
58566;DHT22;47788;46.172;-1.158;2022-09-29T06:01:38;13.10;99.90
58566;DHT22;47788;46.172;-1.158;2022-09-29T06:04:03;13.10;99.90
58566;DHT22;47788;46.172;-1.158;2022-09-29T06:06:29;13.10;99.90
58566;DHT22;47788;46.172;-1.158;2022-09-29T06:08:56;13.10;99.90
58566;DHT22;47788;46.172;-1.158;2022-09-29T06:11:27;13.10;99.90
58566;DHT22;47788;46.172;-1.158;2022-09-29T06:13:54;13.10;99.90
58566;DHT22;47788;46.172;-1.158;2022-09-29T06:16:28;13.10;99.90
58566;DHT22;47788;46.172;-1.158;2022-09-29T06:18:54;13.10;99.90
58566;DHT22;47788;46.172;-1.158;2022-09-29T06:21:26;13.00;99.90
58566;DHT22;47788;46.172;-1.158;2022-09-29T06:23:56;13.00;99.90
58566;DHT22;47788;46.172;-1.158;2022-09-29T06:26:23;12.90;99.90
58566;DHT22;47788;46.172;-1.158;2022-09-29T06:28:49;12.90;99.90
58566;DHT22;47788;46.172;-1.158;2022-09-29T06:31:19;12.90;99.90
58566;DHT22;47788;46.172;-1.158;2022-09-29T06:33:45;13.00;99.90
58566;DHT22;47788;46.172;-1.158;2022-09-29T06:38:59;12.90;99.90
58566;DHT22;47788;46.172;-1.158;2022-09-29T06:41:25;13.00;99.90
58566;DHT22;47788;46.172;-1.158;2022-09-29T06:43:54;13.00;99.90
58566;DHT22;47788;46.172;-1.158;2022-09-29T06:46:19;13.00;99.90
58566;DHT22;47788;46.172;-1.158;2022-09-29T06:48:46;13.00;99.90
58566;DHT22;47788;46.172;-1.158;2022-09-29T06:51:12;13.00;99.90
58566;DHT22;47788;46.172;-1.158;2022-09-29T06:53:39;13.10;99.90
58566;DHT22;47788;46.172;-1.158;2022-09-29T06:56:05;13.10;99.90
58566;DHT22;47788;46.172;-1.158;2022-09-29T06:58:33;13.20;99.90
58566;DHT22;47788;46.172;-1.158;2022-09-29T07:01:00;13.30;99.90
58566;DHT22;47788;46.172;-1.158;2022-09-29T07:03:27;13.40;99.90
58566;DHT22;47788;46.172;-1.158;2022-09-29T07:05:52;13.50;99.90
58566;DHT22;47788;46.172;-1.158;2022-09-29T07:08:18;13.60;99.90
58566;DHT22;47788;46.172;-1.158;2022-09-29T07:10:45;13.70;99.90
58566;DHT22;47788;46.172;-1.158;2022-09-29T07:13:11;13.80;99.90
58566;DHT22;47788;46.172;-1.158;2022-09-29T07:15:36;13.90;99.90
58566;DHT22;47788;46.172;-1.158;2022-09-29T07:18:03;14.00;99.90
58566;DHT22;47788;46.172;-1.158;2022-09-29T07:20:29;14.10;99.90
58566;DHT22;47788;46.172;-1.158;2022-09-29T07:22:56;14.20;99.90
58566;DHT22;47788;46.172;-1.158;2022-09-29T07:25:22;14.20;99.90
58566;DHT22;47788;46.172;-1.158;2022-09-29T07:27:49;14.20;99.90
58566;DHT22;47788;46.172;-1.158;2022-09-29T07:30:16;14.30;99.90
58566;DHT22;47788;46.172;-1.158;2022-09-29T07:32:42;14.20;99.90
58566;DHT22;47788;46.172;-1.158;2022-09-29T07:35:07;14.20;99.90
58566;DHT22;47788;46.172;-1.158;2022-09-29T07:37:33;14.20;99.90
58566;DHT22;47788;46.172;-1.158;2022-09-29T07:39:59;14.20;99.90
58566;DHT22;47788;46.172;-1.158;2022-09-29T07:42:26;14.20;99.90
58566;DHT22;47788;46.172;-1.158;2022-09-29T07:44:52;14.30;99.90
58566;DHT22;47788;46.172;-1.158;2022-09-29T07:47:18;14.30;99.90
58566;DHT22;47788;46.172;-1.158;2022-09-29T07:49:44;14.30;99.90
58566;DHT22;47788;46.172;-1.158;2022-09-29T07:52:11;14.40;99.90
58566;DHT22;47788;46.172;-1.158;2022-09-29T07:54:37;14.40;99.90
58566;DHT22;47788;46.172;-1.158;2022-09-29T07:57:02;14.40;99.90
58566;DHT22;47788;46.172;-1.158;2022-09-29T07:59:29;14.40;99.90
58566;DHT22;47788;46.172;-1.158;2022-09-29T08:01:55;14.40;99.90
58566;DHT22;47788;46.172;-1.158;2022-09-29T08:04:21;14.40;99.90
58566;DHT22;47788;46.172;-1.158;2022-09-29T08:06:47;14.40;99.90
58566;DHT22;47788;46.172;-1.158;2022-09-29T08:09:13;14.40;99.90
58566;DHT22;47788;46.172;-1.158;2022-09-29T08:11:40;14.40;99.90
58566;DHT22;47788;46.172;-1.158;2022-09-29T08:14:07;14.50;99.90
58566;DHT22;47788;46.172;-1.158;2022-09-29T08:16:34;14.70;99.90
58566;DHT22;47788;46.172;-1.158;2022-09-29T08:19:00;14.80;99.90
58566;DHT22;47788;46.172;-1.158;2022-09-29T08:21:27;14.70;99.90
58566;DHT22;47788;46.172;-1.158;2022-09-29T08:23:52;14.60;99.90
58566;DHT22;47788;46.172;-1.158;2022-09-29T08:26:20;14.60;99.90
58566;DHT22;47788;46.172;-1.158;2022-09-29T08:28:47;14.70;99.90
58566;DHT22;47788;46.172;-1.158;2022-09-29T08:31:17;14.70;99.90
58566;DHT22;47788;46.172;-1.158;2022-09-29T08:33:45;14.60;99.90
58566;DHT22;47788;46.172;-1.158;2022-09-29T08:36:15;14.70;99.90
58566;DHT22;47788;46.172;-1.158;2022-09-29T08:38:45;14.90;99.90
58566;DHT22;47788;46.172;-1.158;2022-09-29T08:44:18;15.30;99.90
58566;DHT22;47788;46.172;-1.158;2022-09-29T08:46:50;15.50;99.90
58566;DHT22;47788;46.172;-1.158;2022-09-29T08:49:34;15.60;99.90
58566;DHT22;47788;46.172;-1.158;2022-09-29T08:52:07;15.70;99.90
58566;DHT22;47788;46.172;-1.158;2022-09-29T08:54:38;15.90;99.90
58566;DHT22;47788;46.172;-1.158;2022-09-29T08:57:05;15.90;99.90
58566;DHT22;47788;46.172;-1.158;2022-09-29T08:59:31;16.00;99.90
58566;DHT22;47788;46.172;-1.158;2022-09-29T09:05:21;16.00;99.90
58566;DHT22;47788;46.172;-1.158;2022-09-29T09:22:22;16.60;99.90
58566;DHT22;47788;46.172;-1.158;2022-09-29T09:24:58;16.70;99.90
58566;DHT22;47788;46.172;-1.158;2022-09-29T09:27:36;17.00;99.90
58566;DHT22;47788;46.172;-1.158;2022-09-29T09:30:12;17.20;99.90
58566;DHT22;47788;46.172;-1.158;2022-09-29T09:32:52;17.20;99.90
58566;DHT22;47788;46.172;-1.158;2022-09-29T09:35:24;17.10;99.90
58566;DHT22;47788;46.172;-1.158;2022-09-29T09:37:54;16.90;99.90
58566;DHT22;47788;46.172;-1.158;2022-09-29T09:40:26;16.90;99.90
58566;DHT22;47788;46.172;-1.158;2022-09-29T09:43:10;16.80;99.90
58566;DHT22;47788;46.172;-1.158;2022-09-29T09:45:55;16.80;99.90
58566;DHT22;47788;46.172;-1.158;2022-09-29T09:52:10;16.80;99.90
58566;DHT22;47788;46.172;-1.158;2022-09-29T09:54:32;17.00;99.90
58566;DHT22;47788;46.172;-1.158;2022-09-29T09:57:13;17.10;99.90
58566;DHT22;47788;46.172;-1.158;2022-09-29T10:02:22;17.40;99.90
58566;DHT22;47788;46.172;-1.158;2022-09-29T10:04:51;17.30;99.90
58566;DHT22;47788;46.172;-1.158;2022-09-29T10:07:23;17.40;99.90
58566;DHT22;47788;46.172;-1.158;2022-09-29T10:09:50;17.50;99.90
58566;DHT22;47788;46.172;-1.158;2022-09-29T10:12:19;17.60;99.90
58566;DHT22;47788;46.172;-1.158;2022-09-29T10:15:04;17.60;99.90
58566;DHT22;47788;46.172;-1.158;2022-09-29T10:17:41;17.70;99.90
58566;DHT22;47788;46.172;-1.158;2022-09-29T10:20:07;17.80;99.90
58566;DHT22;47788;46.172;-1.158;2022-09-29T10:22:34;17.70;99.90
58566;DHT22;47788;46.172;-1.158;2022-09-29T10:25:17;17.60;99.90
58566;DHT22;47788;46.172;-1.158;2022-09-29T10:27:49;17.50;99.90
58566;DHT22;47788;46.172;-1.158;2022-09-29T10:30:22;17.60;99.90
58566;DHT22;47788;46.172;-1.158;2022-09-29T10:32:48;17.70;99.90
58566;DHT22;47788;46.172;-1.158;2022-09-29T10:35:42;17.70;99.90
58566;DHT22;47788;46.172;-1.158;2022-09-29T10:38:23;17.60;99.90
58566;DHT22;47788;46.172;-1.158;2022-09-29T10:40:57;17.50;99.90
58566;DHT22;47788;46.172;-1.158;2022-09-29T10:43:42;17.40;99.90
58566;DHT22;47788;46.172;-1.158;2022-09-29T10:49:19;17.30;99.90
58566;DHT22;47788;46.172;-1.158;2022-09-29T10:52:04;17.50;99.90
58566;DHT22;47788;46.172;-1.158;2022-09-29T10:54:33;17.60;99.90
58566;DHT22;47788;46.172;-1.158;2022-09-29T10:56:59;17.50;99.90
58566;DHT22;47788;46.172;-1.158;2022-09-29T10:59:45;17.70;99.90
58566;DHT22;47788;46.172;-1.158;2022-09-29T11:02:22;18.20;99.90
58566;DHT22;47788;46.172;-1.158;2022-09-29T11:04:49;18.00;99.90
58566;DHT22;47788;46.172;-1.158;2022-09-29T11:07:16;17.70;99.90
58566;DHT22;47788;46.172;-1.158;2022-09-29T11:09:43;17.60;99.90
58566;DHT22;47788;46.172;-1.158;2022-09-29T11:12:38;17.90;99.90
58566;DHT22;47788;46.172;-1.158;2022-09-29T11:15:22;17.80;99.90
58566;DHT22;47788;46.172;-1.158;2022-09-29T11:17:50;17.50;99.90
58566;DHT22;47788;46.172;-1.158;2022-09-29T11:20:16;17.50;99.90
58566;DHT22;47788;46.172;-1.158;2022-09-29T11:28:58;17.90;99.90
58566;DHT22;47788;46.172;-1.158;2022-09-29T11:45:00;18.30;99.90
58566;DHT22;47788;46.172;-1.158;2022-09-29T11:53:16;17.60;99.90
58566;DHT22;47788;46.172;-1.158;2022-09-29T11:58:25;17.30;99.90
58566;DHT22;47788;46.172;-1.158;2022-09-29T12:01:15;17.30;99.90
58566;DHT22;47788;46.172;-1.158;2022-09-29T12:06:52;17.40;99.90
58566;DHT22;47788;46.172;-1.158;2022-09-29T12:12:48;17.40;99.90
58566;DHT22;47788;46.172;-1.158;2022-09-29T12:15:54;17.30;99.90
58566;DHT22;47788;46.172;-1.158;2022-09-29T12:18:27;17.40;99.90
58566;DHT22;47788;46.172;-1.158;2022-09-29T12:20:56;17.60;99.90
58566;DHT22;47788;46.172;-1.158;2022-09-29T12:23:26;17.90;99.90
58566;DHT22;47788;46.172;-1.158;2022-09-29T12:26:02;17.70;99.90
58566;DHT22;47788;46.172;-1.158;2022-09-29T12:28:44;17.70;99.90
58566;DHT22;47788;46.172;-1.158;2022-09-29T12:31:23;18.10;99.90
58566;DHT22;47788;46.172;-1.158;2022-09-29T12:33:54;18.30;99.90
58566;DHT22;47788;46.172;-1.158;2022-09-29T12:36:37;18.60;99.90
58566;DHT22;47788;46.172;-1.158;2022-09-29T12:39:26;18.80;99.90
58566;DHT22;47788;46.172;-1.158;2022-09-29T12:44:32;18.90;99.90
58566;DHT22;47788;46.172;-1.158;2022-09-29T12:47:19;18.80;99.90
58566;DHT22;47788;46.172;-1.158;2022-09-29T12:52:30;19.20;99.90
58566;DHT22;47788;46.172;-1.158;2022-09-29T12:55:01;19.10;99.90
58566;DHT22;47788;46.172;-1.158;2022-09-29T12:57:35;19.10;99.90
58566;DHT22;47788;46.172;-1.158;2022-09-29T13:00:12;19.30;99.90
58566;DHT22;47788;46.172;-1.158;2022-09-29T13:29:22;18.80;99.90
58566;DHT22;47788;46.172;-1.158;2022-09-29T13:31:51;18.80;99.90
58566;DHT22;47788;46.172;-1.158;2022-09-29T13:34:32;18.70;99.90
58566;DHT22;47788;46.172;-1.158;2022-09-29T13:39:53;18.50;99.90
58566;DHT22;47788;46.172;-1.158;2022-09-29T13:42:43;18.60;99.90
58566;DHT22;47788;46.172;-1.158;2022-09-29T13:47:50;18.50;99.90
58566;DHT22;47788;46.172;-1.158;2022-09-29T14:00:59;18.50;99.90
58566;DHT22;47788;46.172;-1.158;2022-09-29T14:03:37;18.50;99.90
58566;DHT22;47788;46.172;-1.158;2022-09-29T14:06:13;18.50;99.90
58566;DHT22;47788;46.172;-1.158;2022-09-29T14:08:50;18.60;99.90
58566;DHT22;47788;46.172;-1.158;2022-09-29T14:11:27;18.90;99.70
58566;DHT22;47788;46.172;-1.158;2022-09-29T14:14:14;18.90;99.90
58566;DHT22;47788;46.172;-1.158;2022-09-29T14:22:00;19.70;99.90
58566;DHT22;47788;46.172;-1.158;2022-09-29T14:29:54;19.80;99.90
58566;DHT22;47788;46.172;-1.158;2022-09-29T14:32:42;20.00;99.90
58566;DHT22;47788;46.172;-1.158;2022-09-29T14:35:38;20.20;99.90
58566;DHT22;47788;46.172;-1.158;2022-09-29T14:46:48;18.90;99.90
58566;DHT22;47788;46.172;-1.158;2022-09-29T14:58:17;18.00;99.90
58566;DHT22;47788;46.172;-1.158;2022-09-29T15:01:16;18.10;99.90
58566;DHT22;47788;46.172;-1.158;2022-09-29T15:03:47;19.50;99.90
58566;DHT22;47788;46.172;-1.158;2022-09-29T15:06:19;22.10;97.70
58566;DHT22;47788;46.172;-1.158;2022-09-29T15:09:02;23.90;95.50
58566;DHT22;47788;46.172;-1.158;2022-09-29T15:19:42;28.10;88.50
58566;DHT22;47788;46.172;-1.158;2022-09-29T15:27:05;23.80;91.90
58566;DHT22;47788;46.172;-1.158;2022-09-29T15:29:33;21.90;94.20
58566;DHT22;47788;46.172;-1.158;2022-09-29T15:32:00;20.30;96.70
58566;DHT22;47788;46.172;-1.158;2022-09-29T15:34:26;19.00;99.10
58566;DHT22;47788;46.172;-1.158;2022-09-29T15:36:54;18.30;99.90
58566;DHT22;47788;46.172;-1.158;2022-09-29T15:42:15;17.40;99.90
58566;DHT22;47788;46.172;-1.158;2022-09-29T15:45:04;16.90;99.90
58566;DHT22;47788;46.172;-1.158;2022-09-29T15:47:37;16.50;99.90
58566;DHT22;47788;46.172;-1.158;2022-09-29T15:50:18;16.40;99.90
58566;DHT22;47788;46.172;-1.158;2022-09-29T15:52:45;16.30;99.90
58566;DHT22;47788;46.172;-1.158;2022-09-29T15:55:14;16.40;99.90
58566;DHT22;47788;46.172;-1.158;2022-09-29T15:57:41;16.40;99.90
58566;DHT22;47788;46.172;-1.158;2022-09-29T16:05:38;17.20;99.90
58566;DHT22;47788;46.172;-1.158;2022-09-29T16:08:16;17.30;99.90
58566;DHT22;47788;46.172;-1.158;2022-09-29T16:10:57;17.50;99.90
58566;DHT22;47788;46.172;-1.158;2022-09-29T16:13:27;17.60;99.90
58566;DHT22;47788;46.172;-1.158;2022-09-29T16:15:59;17.50;99.90
58566;DHT22;47788;46.172;-1.158;2022-09-29T16:18:42;17.40;99.90
58566;DHT22;47788;46.172;-1.158;2022-09-29T16:21:14;17.30;99.90
58566;DHT22;47788;46.172;-1.158;2022-09-29T16:23:46;17.20;99.90
58566;DHT22;47788;46.172;-1.158;2022-09-29T16:26:18;17.20;99.90
58566;DHT22;47788;46.172;-1.158;2022-09-29T16:29:05;17.20;99.90
58566;DHT22;47788;46.172;-1.158;2022-09-29T16:31:32;17.30;99.90
58566;DHT22;47788;46.172;-1.158;2022-09-29T16:33:59;17.30;99.90
58566;DHT22;47788;46.172;-1.158;2022-09-29T16:36:33;17.40;99.90
58566;DHT22;47788;46.172;-1.158;2022-09-29T16:39:03;18.90;99.90
58566;DHT22;47788;46.172;-1.158;2022-09-29T16:41:34;19.60;99.90
58566;DHT22;47788;46.172;-1.158;2022-09-29T16:44:09;19.90;99.90
58566;DHT22;47788;46.172;-1.158;2022-09-29T16:46:56;19.70;99.90
58566;DHT22;47788;46.172;-1.158;2022-09-29T16:49:32;19.60;99.90
58566;DHT22;47788;46.172;-1.158;2022-09-29T16:54:31;19.20;99.90
58566;DHT22;47788;46.172;-1.158;2022-09-29T16:57:18;18.80;99.90
58566;DHT22;47788;46.172;-1.158;2022-09-29T16:59:54;18.50;99.90
58566;DHT22;47788;46.172;-1.158;2022-09-29T17:02:20;18.00;99.90
58566;DHT22;47788;46.172;-1.158;2022-09-29T17:04:50;17.80;99.90
58566;DHT22;47788;46.172;-1.158;2022-09-29T17:07:18;17.70;99.90
58566;DHT22;47788;46.172;-1.158;2022-09-29T17:09:47;17.40;99.90
58566;DHT22;47788;46.172;-1.158;2022-09-29T17:12:15;17.20;99.90
58566;DHT22;47788;46.172;-1.158;2022-09-29T17:14:41;17.00;99.90
58566;DHT22;47788;46.172;-1.158;2022-09-29T17:17:14;16.90;99.90
58566;DHT22;47788;46.172;-1.158;2022-09-29T17:19:41;16.70;99.90
58566;DHT22;47788;46.172;-1.158;2022-09-29T17:24:51;16.40;99.90
58566;DHT22;47788;46.172;-1.158;2022-09-29T17:27:17;16.40;99.90
58566;DHT22;47788;46.172;-1.158;2022-09-29T17:30:01;16.30;99.90
58566;DHT22;47788;46.172;-1.158;2022-09-29T17:32:27;16.20;99.90
58566;DHT22;47788;46.172;-1.158;2022-09-29T17:34:53;16.30;99.90
58566;DHT22;47788;46.172;-1.158;2022-09-29T17:37:18;16.20;99.90
58566;DHT22;47788;46.172;-1.158;2022-09-29T17:39:45;16.20;99.90
58566;DHT22;47788;46.172;-1.158;2022-09-29T17:42:10;16.10;99.90
58566;DHT22;47788;46.172;-1.158;2022-09-29T17:44:38;16.10;99.90
58566;DHT22;47788;46.172;-1.158;2022-09-29T17:47:15;16.00;99.90
58566;DHT22;47788;46.172;-1.158;2022-09-29T17:49:42;16.00;99.90
58566;DHT22;47788;46.172;-1.158;2022-09-29T17:52:08;16.00;99.90
58566;DHT22;47788;46.172;-1.158;2022-09-29T17:54:36;16.00;99.90
58566;DHT22;47788;46.172;-1.158;2022-09-29T17:57:03;15.90;99.90
58566;DHT22;47788;46.172;-1.158;2022-09-29T17:59:29;15.80;99.90
58566;DHT22;47788;46.172;-1.158;2022-09-29T18:02:10;15.90;99.90
58566;DHT22;47788;46.172;-1.158;2022-09-29T18:04:37;15.80;99.90
58566;DHT22;47788;46.172;-1.158;2022-09-29T18:07:07;15.70;99.90
58566;DHT22;47788;46.172;-1.158;2022-09-29T18:09:33;15.60;99.90
58566;DHT22;47788;46.172;-1.158;2022-09-29T18:11:58;15.60;99.90
58566;DHT22;47788;46.172;-1.158;2022-09-29T18:14:24;15.60;99.90
58566;DHT22;47788;46.172;-1.158;2022-09-29T18:16:49;15.50;99.90
58566;DHT22;47788;46.172;-1.158;2022-09-29T18:19:16;15.50;99.90
58566;DHT22;47788;46.172;-1.158;2022-09-29T18:21:42;15.40;99.90
58566;DHT22;47788;46.172;-1.158;2022-09-29T18:24:07;15.50;99.90
58566;DHT22;47788;46.172;-1.158;2022-09-29T18:26:35;15.50;99.90
58566;DHT22;47788;46.172;-1.158;2022-09-29T18:29:17;15.50;99.90
58566;DHT22;47788;46.172;-1.158;2022-09-29T18:31:44;15.50;99.90
58566;DHT22;47788;46.172;-1.158;2022-09-29T18:34:15;15.50;99.90
58566;DHT22;47788;46.172;-1.158;2022-09-29T18:36:41;15.60;99.90
58566;DHT22;47788;46.172;-1.158;2022-09-29T18:39:08;15.60;99.90
58566;DHT22;47788;46.172;-1.158;2022-09-29T18:41:34;15.70;99.90
58566;DHT22;47788;46.172;-1.158;2022-09-29T18:44:00;15.60;99.90
58566;DHT22;47788;46.172;-1.158;2022-09-29T18:46:25;15.60;99.90
58566;DHT22;47788;46.172;-1.158;2022-09-29T18:48:51;15.60;99.90
58566;DHT22;47788;46.172;-1.158;2022-09-29T18:51:17;15.60;99.90
58566;DHT22;47788;46.172;-1.158;2022-09-29T18:53:43;15.60;99.90
58566;DHT22;47788;46.172;-1.158;2022-09-29T18:56:14;15.60;99.90